createdAt,value
2019-01-16T00:01:46.478Z,100126.62
2019-01-16T00:04:32.371Z,100133.05
2019-01-16T00:07:21.327Z,100121.48
2019-01-16T00:10:23.109Z,100124.48
2019-01-16T00:13:12.072Z,100122.80
2019-01-16T00:16:14.670Z,100120.25
2019-01-16T00:19:06.313Z,100115.95
2019-01-16T00:22:07.999Z,100114.27
2019-01-16T00:25:06.741Z,100114.66
2019-01-16T00:28:05.741Z,100109.11
2019-01-16T00:30:50.707Z,100112.09
2019-01-16T00:33:45.716Z,100102.70
2019-01-16T00:36:37.045Z,100112.09
2019-01-16T00:39:33.535Z,100115.10
2019-01-16T00:42:12.982Z,100105.27
2019-01-16T00:45:07.377Z,100107.45
2019-01-16T00:48:10.992Z,100090.72
2019-01-16T00:50:52.509Z,100094.97
2019-01-16T00:53:29.053Z,100100.12
2019-01-16T00:56:16.375Z,100084.70
2019-01-16T00:59:08.061Z,100087.25
2019-01-16T01:01:57.369Z,100094.56
2019-01-16T01:04:46.024Z,100088.95
2019-01-16T01:07:41.951Z,100091.53
2019-01-16T01:10:29.689Z,100079.13
2019-01-16T01:13:12.520Z,100083.39
2019-01-16T01:16:06.916Z,100084.69
2019-01-16T01:19:01.518Z,100079.98
2019-01-16T01:21:49.369Z,100079.56
2019-01-16T01:24:48.372Z,100079.99
2019-01-16T01:27:42.985Z,100070.99
2019-01-16T01:30:32.868Z,100074.02
2019-01-16T01:33:20.409Z,100058.16
2019-01-16T01:36:10.295Z,100064.19
2019-01-16T01:38:59.366Z,100056.04
2019-01-16T01:41:49.254Z,100064.20
2019-01-16T01:44:37.613Z,100061.63
2019-01-16T01:47:31.494Z,100053.09
2019-01-16T01:50:38.999Z,100056.89
2019-01-16T01:53:31.572Z,100061.66
2019-01-16T01:56:23.430Z,100059.54
2019-01-16T01:59:15.863Z,100061.69
2019-01-16T02:02:03.595Z,100067.19
2019-01-16T02:04:51.742Z,100064.21
2019-01-16T02:07:59.445Z,100063.32
2019-01-16T02:10:47.999Z,100060.72
2019-01-16T02:13:36.655Z,100063.72
2019-01-16T02:16:20.089Z,100065.43
2019-01-16T02:19:14.683Z,100064.56
2019-01-16T02:22:10.412Z,100063.72
2019-01-16T02:25:05.517Z,100060.66
2019-01-16T02:27:54.793Z,100061.49
2019-01-16T02:30:44.266Z,100050.78
2019-01-16T02:33:39.583Z,100053.34
2019-01-16T02:36:36.960Z,100046.48
2019-01-16T02:39:19.886Z,100044.78
2019-01-16T02:42:09.272Z,100046.91
2019-01-16T02:44:57.566Z,100037.48
2019-01-16T02:47:45.109Z,100043.03
2019-01-16T02:50:40.446Z,100040.48
2019-01-16T02:53:32.496Z,100036.63
2019-01-16T02:56:24.542Z,100038.80
2019-01-16T02:59:22.933Z,100031.92
2019-01-16T03:02:12.218Z,100022.95
2019-01-16T03:05:19.714Z,100021.27
2019-01-16T03:08:12.272Z,100024.25
2019-01-16T03:11:15.983Z,100008.45
2019-01-16T03:14:07.206Z,100004.60
2019-01-16T03:17:05.691Z,100002.03
2019-01-16T03:19:47.113Z,100000.36
2019-01-16T03:22:42.274Z,99996.92
2019-01-16T03:25:23.158Z,99993.09
2019-01-16T03:28:10.475Z,99988.38
2019-01-16T03:30:55.855Z,99983.66
2019-01-16T03:33:44.726Z,99978.95
2019-01-16T03:36:33.388Z,99977.24
2019-01-16T03:39:13.561Z,99968.25
2019-01-16T03:42:08.875Z,99971.22
2019-01-16T03:45:06.771Z,99972.97
2019-01-16T03:48:09.666Z,99968.27
2019-01-16T03:51:08.853Z,99963.97
2019-01-16T03:53:50.237Z,99960.98
2019-01-16T03:56:41.554Z,99962.25
2019-01-16T03:59:29.288Z,99960.98
2019-01-16T04:02:25.417Z,99950.28
2019-01-16T04:05:27.090Z,99951.57
2019-01-16T04:08:22.103Z,99948.13
2019-01-16T04:11:09.856Z,99942.14
2019-01-16T04:14:10.400Z,99943.45
2019-01-16T04:16:58.747Z,99940.43
2019-01-16T04:19:43.207Z,99935.72
2019-01-16T04:22:46.918Z,99943.88
2019-01-16T04:25:39.062Z,99937.45
2019-01-16T04:28:32.585Z,99930.59
2019-01-16T04:31:22.458Z,99931.44
2019-01-16T04:34:15.495Z,99926.73
2019-01-16T04:37:03.028Z,99921.59
2019-01-16T04:39:48.111Z,99919.02
2019-01-16T04:42:36.774Z,99918.16
2019-01-16T04:45:44.372Z,99916.90
2019-01-16T04:48:26.473Z,99913.89
2019-01-16T04:51:15.021Z,99912.59
2019-01-16T04:54:10.141Z,99906.18
2019-01-16T04:56:57.994Z,99910.89
2019-01-16T04:59:58.267Z,99907.46
2019-01-16T05:02:46.613Z,99910.88
2019-01-16T05:05:35.730Z,99906.59
2019-01-16T05:08:27.385Z,99906.16
2019-01-16T05:11:13.907Z,99899.33
2019-01-16T05:13:56.676Z,99894.20
2019-01-16T05:16:50.706Z,99895.90
2019-01-16T05:19:42.857Z,99887.33
2019-01-16T05:22:22.818Z,99892.45
2019-01-16T05:25:29.917Z,99889.90
2019-01-16T05:28:21.226Z,99894.59
2019-01-16T05:31:11.826Z,99889.02
2019-01-16T05:34:14.363Z,99880.47
2019-01-16T05:37:05.066Z,99876.20
2019-01-16T05:40:08.411Z,99878.73
2019-01-16T05:42:56.974Z,99871.89
2019-01-16T05:45:49.532Z,99869.33
2019-01-16T05:48:51.124Z,99865.03
2019-01-16T05:51:43.947Z,99872.70
2019-01-16T05:54:32.299Z,99874.44
2019-01-16T05:57:19.931Z,99868.42
2019-01-16T06:00:01.268Z,99860.70
2019-01-16T06:02:48.357Z,99857.27
2019-01-16T06:05:36.108Z,99849.13
2019-01-16T06:08:23.240Z,99843.13
2019-01-16T06:11:26.560Z,99848.70
2019-01-16T06:14:10.047Z,99841.86
2019-01-16T06:16:58.112Z,99837.17
2019-01-16T06:19:54.001Z,99826.02
2019-01-16T06:22:31.946Z,99836.73
2019-01-16T06:25:13.231Z,99836.76
2019-01-16T06:28:17.657Z,99838.05
2019-01-16T06:31:25.155Z,99847.46
2019-01-16T06:34:26.581Z,99845.33
2019-01-16T06:37:18.566Z,99834.19
2019-01-16T06:40:02.818Z,99838.03
2019-01-16T06:42:55.047Z,99845.30
2019-01-16T06:45:43.567Z,99833.31
2019-01-16T06:48:34.734Z,99848.30
2019-01-16T06:51:25.064Z,99842.72
2019-01-16T06:54:07.917Z,99843.16
2019-01-16T06:56:57.538Z,99837.16
2019-01-16T06:59:39.309Z,99831.58
2019-01-16T07:02:51.695Z,99817.46
2019-01-16T07:06:08.489Z,99825.16
2019-01-16T07:09:04.090Z,99826.47
2019-01-16T07:11:52.204Z,99824.32
2019-01-16T07:14:48.729Z,99822.19
2019-01-16T07:17:53.668Z,99823.48
2019-01-16T07:21:00.914Z,99829.91
2019-01-16T07:24:08.020Z,99824.35
2019-01-16T07:27:06.098Z,99831.22
2019-01-16T07:30:00.386Z,99827.78
2019-01-16T07:33:01.651Z,99826.48
2019-01-16T07:36:02.825Z,99826.48
2019-01-16T07:38:58.426Z,99819.64
2019-01-16T07:41:45.432Z,99809.39
2019-01-16T07:44:33.013Z,99811.11
2019-01-16T07:47:31.004Z,99811.10
2019-01-16T07:50:18.874Z,99821.81
2019-01-16T07:53:08.254Z,99821.80
2019-01-16T07:55:55.427Z,99820.94
2019-01-16T07:58:46.839Z,99822.69
2019-01-16T08:01:36.555Z,99819.27
2019-01-16T08:04:31.646Z,99835.09
2019-01-16T08:07:23.374Z,99831.66
2019-01-16T08:10:30.157Z,99833.83
2019-01-16T08:13:19.700Z,99836.83
2019-01-16T08:16:06.989Z,99841.52
2019-01-16T08:18:57.277Z,99838.09
2019-01-16T08:21:46.992Z,99845.81
2019-01-16T08:24:36.882Z,99842.80
2019-01-16T08:27:40.801Z,99845.36
2019-01-16T08:30:32.436Z,99841.95
2019-01-16T08:33:21.100Z,99835.94
2019-01-16T08:36:09.658Z,99838.53
2019-01-16T08:39:05.187Z,99837.23
2019-01-16T08:41:54.467Z,99837.67
2019-01-16T08:44:54.089Z,99841.09
2019-01-16T08:47:52.381Z,99845.39
2019-01-16T08:50:44.831Z,99841.53
2019-01-16T08:53:40.555Z,99844.53
2019-01-16T08:56:40.574Z,99834.69
2019-01-16T08:59:29.900Z,99833.39
2019-01-16T09:02:18.505Z,99837.67
2019-01-16T09:05:07.571Z,99823.55
2019-01-16T09:07:54.382Z,99818.41
2019-01-16T09:10:52.704Z,99819.70
2019-01-16T09:13:34.770Z,99808.55
2019-01-16T09:16:38.602Z,99808.13
2019-01-16T09:19:16.281Z,99802.98
2019-01-16T09:22:04.059Z,99797.83
2019-01-16T09:25:01.936Z,99801.69
2019-01-16T09:27:52.023Z,99791.86
2019-01-16T09:30:39.998Z,99792.70
2019-01-16T09:33:26.981Z,99790.98
2019-01-16T09:36:22.906Z,99782.41
2019-01-16T09:39:12.694Z,99791.41
2019-01-16T09:41:58.183Z,99784.98
2019-01-16T09:44:53.091Z,99781.98
2019-01-16T09:47:35.291Z,99781.13
2019-01-16T09:50:33.780Z,99778.56
2019-01-16T09:53:38.103Z,99783.25
2019-01-16T09:56:25.530Z,99765.67
2019-01-16T09:59:32.423Z,99775.96
2019-01-16T10:02:30.394Z,99773.39
2019-01-16T10:05:12.021Z,99774.28
2019-01-16T10:08:01.887Z,99771.70
2019-01-16T10:10:49.844Z,99768.28
2019-01-16T10:13:31.674Z,99767.39
2019-01-16T10:16:18.506Z,99763.11
2019-01-16T10:19:01.158Z,99760.11
2019-01-16T10:21:48.798Z,99762.25
2019-01-16T10:24:29.756Z,99762.68
2019-01-16T10:27:16.521Z,99752.86
2019-01-16T10:30:08.318Z,99751.14
2019-01-16T10:32:55.069Z,99756.71
2019-01-16T10:35:47.226Z,99748.59
2019-01-16T10:38:43.300Z,99747.74
2019-01-16T10:41:31.865Z,99741.75
2019-01-16T10:44:29.437Z,99732.76
2019-01-16T10:47:28.246Z,99725.48
2019-01-16T10:50:20.199Z,99724.19
2019-01-16T10:53:08.897Z,99723.34
2019-01-16T10:56:00.729Z,99719.91
2019-01-16T11:01:40.320Z,99705.34
2019-01-16T11:04:29.911Z,99704.09
2019-01-16T11:07:11.650Z,99701.09
2019-01-16T11:10:03.866Z,99700.67
2019-01-16T11:12:45.356Z,99702.78
2019-01-16T11:15:34.439Z,99695.50
2019-01-16T11:18:22.795Z,99685.69
2019-01-16T11:21:14.937Z,99674.95
2019-01-16T11:24:01.568Z,99671.98
2019-01-16T11:26:41.622Z,99665.95
2019-01-16T11:29:29.508Z,99669.41
2019-01-16T11:32:30.588Z,99666.42
2019-01-16T11:35:25.968Z,99663.42
2019-01-16T11:38:30.269Z,99658.71
2019-01-16T11:41:22.769Z,99652.72
2019-01-16T11:44:04.857Z,99654.00
2019-01-16T11:46:41.566Z,99647.59
2019-01-16T11:49:30.632Z,99643.30
2019-01-16T11:52:16.596Z,99639.02
2019-01-16T11:55:08.552Z,99630.89
2019-01-16T11:57:55.331Z,99630.89
2019-01-16T12:00:35.555Z,99630.89
2019-01-16T12:03:24.121Z,99620.19
2019-01-16T12:06:22.722Z,99620.62
2019-01-16T12:09:14.320Z,99616.77
2019-01-16T12:12:06.752Z,99617.20
2019-01-16T12:14:53.967Z,99598.83
2019-01-16T12:17:38.231Z,99597.54
2019-01-16T12:20:25.611Z,99607.81
2019-01-16T12:23:22.725Z,99600.97
2019-01-16T12:26:18.528Z,99592.38
2019-01-16T12:29:01.512Z,99591.98
2019-01-16T12:31:52.904Z,99590.27
2019-01-16T12:34:41.013Z,99590.27
2019-01-16T12:37:20.674Z,99578.25
2019-01-16T12:39:58.509Z,99575.28
2019-01-16T12:42:45.876Z,99585.13
2019-01-16T12:45:34.998Z,99585.56
2019-01-16T12:48:25.881Z,99566.30
2019-01-16T12:51:23.093Z,99573.58
2019-01-16T12:54:23.641Z,99574.47
2019-01-16T12:57:11.503Z,99568.45
2019-01-16T13:00:00.271Z,99558.17
2019-01-16T13:02:57.443Z,99543.63
2019-01-16T13:05:56.928Z,99542.38
2019-01-16T13:08:40.416Z,99536.82
2019-01-16T13:11:37.398Z,99531.69
2019-01-16T13:14:30.025Z,99534.25
2019-01-16T13:17:26.761Z,99512.44
2019-01-16T13:20:18.353Z,99510.26
2019-01-16T13:23:19.165Z,99504.25
2019-01-16T13:26:09.844Z,99496.98
2019-01-16T13:29:16.687Z,99493.58
2019-01-16T13:31:57.722Z,99496.61
2019-01-16T13:34:37.852Z,99473.89
2019-01-16T13:37:27.096Z,99484.58
2019-01-16T13:40:18.976Z,99488.00
2019-01-16T13:43:07.998Z,99494.42
2019-01-16T13:45:59.382Z,99482.00
2019-01-16T13:48:38.987Z,99483.28
2019-01-16T13:51:34.058Z,99485.41
2019-01-16T13:54:23.189Z,99495.28
2019-01-16T13:57:10.680Z,99473.94
2019-01-16T14:00:02.583Z,99472.65
2019-01-16T14:02:51.715Z,99462.81
2019-01-16T14:05:39.509Z,99463.66
2019-01-16T14:08:30.805Z,99476.08
2019-01-16T14:11:29.702Z,99480.34
2019-01-16T14:14:36.614Z,99479.49
2019-01-16T14:17:17.357Z,99464.09
2019-01-16T14:20:05.454Z,99436.30
2019-01-16T14:23:03.493Z,99408.05
2019-01-16T14:25:51.424Z,99384.09
2019-01-16T14:28:57.868Z,99383.25
2019-01-16T14:31:55.876Z,99393.52
2019-01-16T14:34:58.254Z,99411.47
2019-01-16T14:37:47.879Z,99421.30
2019-01-16T14:40:35.564Z,99417.89
2019-01-16T14:43:23.158Z,99422.59
2019-01-16T14:46:27.249Z,99417.03
2019-01-16T14:49:14.534Z,99419.16
2019-01-16T14:52:06.769Z,99410.66
2019-01-16T14:55:05.819Z,99407.63
2019-01-16T14:57:48.688Z,99396.06
2019-01-16T15:00:36.094Z,99385.88
2019-01-16T15:03:25.001Z,99385.87
2019-01-16T15:06:19.876Z,99391.86
2019-01-16T15:09:07.164Z,99382.88
2019-01-16T15:11:54.342Z,99388.86
2019-01-16T15:15:00.812Z,99392.70
2019-01-16T15:17:54.949Z,99379.88
2019-01-16T15:20:44.683Z,99377.75
2019-01-16T15:23:40.374Z,99365.77
2019-01-16T15:26:26.119Z,99364.92
2019-01-16T15:29:11.103Z,99364.97
2019-01-16T15:32:07.047Z,99365.36
2019-01-16T15:35:02.220Z,99358.98
2019-01-16T15:38:00.985Z,99367.07
2019-01-16T15:41:08.147Z,99351.72
2019-01-16T15:44:07.522Z,99357.72
2019-01-16T15:46:50.194Z,99360.28
2019-01-16T15:49:47.321Z,99368.40
2019-01-16T15:52:44.784Z,99364.92
2019-01-16T15:55:32.030Z,99361.95
2019-01-16T15:58:33.556Z,99361.13
2019-01-16T16:01:16.128Z,99347.03
2019-01-16T16:04:07.224Z,99353.02
2019-01-16T16:07:08.240Z,99338.06
2019-01-16T16:10:15.011Z,99329.52
2019-01-16T16:13:21.729Z,99320.53
2019-01-16T16:16:10.447Z,99317.11
2019-01-16T16:18:58.245Z,99309.00
2019-01-16T16:22:00.157Z,99298.31
2019-01-16T16:25:01.102Z,99287.20
2019-01-16T16:27:54.876Z,99290.20
2019-01-16T16:30:39.020Z,99284.22
2019-01-16T16:33:30.644Z,99270.95
2019-01-16T16:36:13.014Z,99272.23
2019-01-16T16:39:02.141Z,99267.16
2019-01-16T16:41:44.843Z,99266.69
2019-01-16T16:44:34.461Z,99266.25
2019-01-16T16:47:23.507Z,99262.42
2019-01-16T16:50:05.656Z,99256.86
2019-01-16T16:52:52.954Z,99255.62
2019-01-16T16:55:50.792Z,99263.31
2019-01-16T16:58:54.533Z,99262.84
2019-01-16T17:01:52.733Z,99253.05
2019-01-16T17:04:44.027Z,99244.95
2019-01-16T17:07:31.150Z,99237.68
2019-01-16T17:10:35.916Z,99231.27
2019-01-16T17:13:22.904Z,99219.73
2019-01-16T17:16:20.751Z,99217.61
2019-01-16T17:19:13.494Z,99214.17
2019-01-16T17:22:11.066Z,99209.50
2019-01-16T17:24:59.137Z,99217.20
2019-01-16T17:27:46.213Z,99212.05
2019-01-16T17:30:36.265Z,99208.23
2019-01-16T17:33:33.700Z,99206.52
2019-01-16T17:36:22.432Z,99202.23
2019-01-16T17:39:13.820Z,99193.28
2019-01-16T17:42:08.492Z,99188.62
2019-01-16T17:45:01.213Z,99193.27
2019-01-16T17:47:44.419Z,99185.16
2019-01-16T17:50:39.518Z,99182.66
2019-01-16T17:53:27.909Z,99186.50
2019-01-16T17:56:19.404Z,99188.63
2019-01-16T17:59:11.503Z,99179.25
2019-01-16T18:01:55.416Z,99183.09
2019-01-16T18:04:50.700Z,99176.27
2019-01-16T18:07:37.689Z,99180.53
2019-01-16T18:10:31.122Z,99173.27
2019-01-16T18:13:18.413Z,99176.25
2019-01-16T18:16:08.574Z,99166.85
2019-01-16T18:19:00.476Z,99165.09
2019-01-16T18:22:06.420Z,99161.28
2019-01-16T18:24:53.300Z,99163.42
2019-01-16T18:27:42.132Z,99162.94
2019-01-16T18:30:43.772Z,99161.65
2019-01-16T18:33:32.906Z,99160.78
2019-01-16T18:36:27.473Z,99157.38
2019-01-16T18:39:31.880Z,99149.75
2019-01-16T18:42:19.679Z,99136.94
2019-01-16T18:45:02.767Z,99127.98
2019-01-16T18:48:05.532Z,99137.79
2019-01-16T18:51:09.939Z,99135.61
2019-01-16T18:54:01.842Z,99133.54
2019-01-16T18:56:51.179Z,99127.98
2019-01-16T18:59:38.576Z,99123.72
2019-01-16T19:02:27.725Z,99120.27
2019-01-16T19:05:28.945Z,99112.59
2019-01-16T19:08:21.769Z,99113.39
2019-01-16T19:11:29.679Z,99120.72
2019-01-16T19:14:25.186Z,99115.16
2019-01-16T19:17:25.989Z,99112.16
2019-01-16T19:20:15.198Z,99109.59
2019-01-16T19:23:19.704Z,99100.63
2019-01-16T19:26:09.974Z,99101.86
2019-01-16T19:28:56.314Z,99103.55
2019-01-16T19:31:43.420Z,99098.86
2019-01-16T19:34:53.956Z,99100.12
2019-01-16T19:42:04.709Z,99079.62
2019-01-16T19:44:53.079Z,99073.19
2019-01-16T19:47:32.397Z,99066.77
2019-01-16T19:50:21.135Z,99066.33
2019-01-16T19:53:17.087Z,99054.37
2019-01-16T19:56:09.087Z,99058.56
2019-01-16T19:58:55.966Z,99050.91
2019-01-16T20:01:42.960Z,99044.47
2019-01-16T20:04:58.611Z,99040.59
2019-01-16T20:07:54.431Z,99046.97
2019-01-16T20:10:43.981Z,99035.47
2019-01-16T20:13:36.569Z,99035.04
2019-01-16T20:16:40.145Z,99033.31
2019-01-16T20:19:48.168Z,99046.09
2019-01-16T20:22:36.161Z,99031.14
2019-01-16T20:25:42.119Z,99014.88
2019-01-16T20:28:20.870Z,99017.85
2019-01-16T20:31:10.007Z,99020.83
2019-01-16T20:33:57.815Z,99018.66
2019-01-16T20:36:53.022Z,99006.66
2019-01-16T20:39:41.820Z,98998.54
2019-01-16T20:42:37.515Z,99007.44
2019-01-16T20:45:25.114Z,99010.44
2019-01-16T20:48:13.231Z,99007.88
2019-01-16T20:51:06.574Z,98995.94
2019-01-16T20:53:59.909Z,98993.40
2019-01-16T20:56:47.537Z,98999.05
2019-01-16T20:59:29.578Z,98988.33
2019-01-16T21:02:23.936Z,98981.88
2019-01-16T21:05:11.955Z,98979.79
2019-01-16T21:08:09.690Z,98976.75
2019-01-16T21:11:05.172Z,98972.09
2019-01-16T21:14:06.616Z,98966.13
2019-01-16T21:16:56.167Z,98964.41
2019-01-16T21:19:53.402Z,98968.25
2019-01-16T21:22:58.205Z,98960.56
2019-01-16T21:25:40.628Z,98951.17
2019-01-16T21:28:59.732Z,98955.88
2019-01-16T21:31:40.774Z,98952.48
2019-01-16T21:34:45.180Z,98947.33
2019-01-16T21:37:32.467Z,98939.25
2019-01-16T21:40:27.700Z,98943.55
2019-01-16T21:43:22.015Z,98947.38
2019-01-16T21:46:17.615Z,98955.04
2019-01-16T21:48:59.474Z,98942.55
2019-01-16T21:51:46.771Z,98934.53
2019-01-16T21:54:44.718Z,98932.00
2019-01-16T21:57:37.037Z,98937.56
2019-01-16T22:00:27.836Z,98930.70
2019-01-16T22:03:21.640Z,98939.20
2019-01-16T22:06:08.492Z,98940.49
2019-01-16T22:08:51.643Z,98927.27
2019-01-16T22:11:52.862Z,98932.41
2019-01-16T22:14:48.969Z,98919.55
2019-01-16T22:17:40.467Z,98925.55
2019-01-16T22:20:23.344Z,98923.91
2019-01-16T22:23:12.392Z,98924.34
2019-01-16T22:26:01.320Z,98917.50
2019-01-16T22:28:42.881Z,98912.39
2019-01-16T22:31:31.975Z,98910.75
2019-01-16T22:34:26.689Z,98901.30
2019-01-16T22:37:19.204Z,98890.98
2019-01-16T22:40:06.809Z,98902.55
2019-01-16T22:43:01.986Z,98900.82
2019-01-16T22:45:50.728Z,98899.11
2019-01-16T22:48:55.120Z,98900.34
2019-01-16T22:51:47.047Z,98902.10
2019-01-16T22:54:34.726Z,98906.80
2019-01-16T22:57:23.255Z,98896.52
2019-01-16T23:00:05.662Z,98890.56
2019-01-16T23:02:54.151Z,98880.34
2019-01-16T23:05:54.859Z,98885.42
2019-01-16T23:08:49.528Z,98882.02
2019-01-16T23:11:38.973Z,98874.76
2019-01-16T23:14:23.295Z,98869.16
2019-01-16T23:17:12.239Z,98864.52
2019-01-16T23:20:19.203Z,98858.09
2019-01-16T23:23:15.194Z,98872.59
2019-01-16T23:26:04.026Z,98869.12
2019-01-16T23:28:49.989Z,98873.80
2019-01-16T23:31:32.474Z,98871.13
2019-01-16T23:34:18.944Z,98868.44
2019-01-16T23:37:19.759Z,98855.53
2019-01-16T23:40:01.942Z,98859.30
2019-01-16T23:42:56.596Z,98855.96
2019-01-16T23:45:48.401Z,98866.77
2019-01-16T23:48:40.794Z,98858.68
2019-01-16T23:51:25.850Z,98852.33
2019-01-16T23:54:15.614Z,98843.86
2019-01-16T23:57:02.894Z,98846.42
2019-01-16T23:59:52.127Z,98850.70
